Aeolos — V7PS2 — position and weather

sailwx.info

Track history (hours):
 
Tides and Currents Weather Stations Pressure Air Temp Water Temp Dewpoint Dewpoint Depression Visibility Wind Speed Wind Dir Waves Ship Positions

Aeolos

Last reported at 2016-Jul-26 13:34 UTC. Time now 2016-Jul-26 14:08 UTC.
Position N 37°17' W 026°29'.

Length 172 m; draft 11 m.

Type: Cargo ship. MMSI: 538003275.

Date/timePositionNaut miles runAvg speedWind from/ knotsBaromVisibWave heightAir tempDewpointWater temp
2016-Jul-26 13:34N 37°17' W 026°29'1312.7
2016-Jul-26 12:33N 37°15' W 026°13'1312.6
2016-Jul-26 11:33N 37°14' W 025°57'1312.7
2016-Jul-26 10:33N 37°12' W 025°42'1312.5
2016-Jul-26 09:33N 37°11' W 025°26'1212.4
2016-Jul-26 08:33N 37°10' W 025°10'1212.3
2016-Jul-26 07:33N 37°09' W 024°55'1312.9
2016-Jul-26 06:33N 37°08' W 024°39'1312.9
2016-Jul-26 05:33N 37°06' W 024°23'1313.1
2016-Jul-26 04:33N 37°06' W 024°07'1313.1
2016-Jul-26 03:33N 37°04' W 023°50'1513.1
2016-Jul-26 02:26N 37°03' W 023°32'7613.0
2016-Jul-25 20:33N 36°55' W 021°57'23612.4
2016-Jul-25 01:33N 36°31' W 017°03'5012.3
2016-Jul-24 21:31N 36°27' W 016°02'27811.6
2016-Jul-23 21:33N 35°58' W 010°18'1111.3
2016-Jul-23 20:33N 35°57' W 010°04'1111.6
2016-Jul-23 19:33N 35°57' W 009°50'1311.4
2016-Jul-23 18:26N 35°58' W 009°35'30 9.5
2016-Jul-23 15:14N 35°58' W 008°57'710.3
2016-Jul-23 14:33N 35°57' W 008°48'1510.8
2016-Jul-23 13:08N 35°58' W 008°29'610.9
2016-Jul-23 12:33N 35°58' W 008°22'1611.8
2016-Jul-23 11:10N 35°58' W 008°02'12012.5
2016-Jul-23 01:33N 35°58' W 005°33'9 9.5
2016-Jul-23 00:33N 36°03' W 005°23'4 4.2
2016-Jul-22 23:34N 36°07' W 005°22'0 0.1
2016-Jul-22 22:33N 36°07' W 005°22'0 0.3
2016-Jul-22 21:33N 36°07' W 005°22'0 0.0
2016-Jul-22 20:18N 36°07' W 005°22'0 0.0
2016-Jul-22 19:33N 36°07' W 005°22'0 0.0
2016-Jul-22 18:33N 36°07' W 005°22'0 0.0
2016-Jul-22 17:27N 36°07' W 005°22'0 0.1
2016-Jul-22 16:30N 36°07' W 005°21'0 0.1
2016-Jul-22 15:33N 36°07' W 005°21'0 0.2
2016-Jul-22 14:30N 36°07' W 005°22'2 2.2
2016-Jul-22 13:33N 36°05' W 005°21'5 4.5
2016-Jul-22 12:33N 36°05' W 005°16'20 8.8
2016-Jul-22 10:14N 36°08' W 004°51'17511.9
2016-Jul-21 19:31N 36°33' W 001°16'2412.3
2016-Jul-21 17:32N 36°36' W 000°45'1212.7
2016-Jul-21 16:34N 36°38' W 000°30'1312.4
2016-Jul-21 15:31N 36°40' W 000°14'1212.3
2016-Jul-21 14:33N 36°41' E 000°00'1312.6
2016-Jul-21 13:33N 36°44' E 000°16'1312.7
2016-Jul-21 12:33N 36°46' E 000°31'1313.0
2016-Jul-21 11:33N 36°47' E 000°48'1312.8
2016-Jul-21 10:33N 36°48' E 001°04'1312.5
2016-Jul-21 09:33N 36°50' E 001°19'1312.7
2016-Jul-21 08:33N 36°52' E 001°35'1212.6
2016-Jul-21 07:33N 36°54' E 001°50'1312.7
2016-Jul-21 06:33N 36°56' E 002°06'1312.7
2016-Jul-21 05:33N 36°58' E 002°22'1312.8
2016-Jul-21 04:33N 36°60' E 002°37'1312.8
2016-Jul-21 03:33N 37°02' E 002°53'1312.5
2016-Jul-21 02:33N 37°04' E 003°09'1313.1
2016-Jul-21 01:32N 37°07' E 003°25'1412.9
2016-Jul-21 00:26N 37°10' E 003°43'2513.3
2016-Jul-20 22:33N 37°13' E 004°14'2612.9
2016-Jul-20 20:32N 37°14' E 004°46'2512.7
2016-Jul-20 18:34N 37°18' E 005°17'1312.8
2016-Jul-20 17:33N 37°21' E 005°34'1313.0
2016-Jul-20 16:33N 37°23' E 005°50'1312.9
2016-Jul-20 15:33N 37°24' E 006°06'1313.2
2016-Jul-20 14:33N 37°26' E 006°22'20312.7
2016-Jul-19 22:33N 37°35' E 010°38'1312.6
2016-Jul-19 21:30N 37°33' E 010°54'1212.9
2016-Jul-19 20:32N 37°30' E 011°09'4213.3
2016-Jul-19 17:22N 37°08' E 011°55'1113.4
2016-Jul-19 16:32N 37°03' E 012°07'1313.0
2016-Jul-19 15:33N 36°59' E 012°22'1212.1
2016-Jul-19 14:33N 36°55' E 012°37'1212.0
2016-Jul-19 13:34N 36°52' E 012°51'1212.1
2016-Jul-19 12:34N 36°49' E 013°06'1211.9
2016-Jul-19 11:33N 36°45' E 013°20'1212.1
2016-Jul-19 10:33N 36°41' E 013°34'1212.1
2016-Jul-19 09:33N 36°37' E 013°48'1211.9
2016-Jul-19 08:33N 36°33' E 014°02'1212.1
2016-Jul-19 07:33N 36°30' E 014°17'44411.1
2016-Jul-17 15:33N 36°44' E 023°29'1211.7
2016-Jul-17 14:33N 36°54' E 023°37'1212.2
2016-Jul-17 13:33N 37°05' E 023°44'1212.2
2016-Jul-17 12:33N 37°15' E 023°52'1312.5
2016-Jul-17 11:33N 37°26' E 024°01'1312.2
2016-Jul-17 10:30N 37°37' E 024°08'1211.2
2016-Jul-17 09:27N 37°49' E 024°10'1112.5
2016-Jul-17 08:33N 37°60' E 024°08'  
Track history (hours):
 
Tides and Currents Weather Stations Pressure Air Temp Water Temp Dewpoint Dewpoint Depression Visibility Wind Speed Wind Dir Waves Ship Positions

Aeolos

Last reported at 2016-Jul-26 13:34 UTC. Time now 2016-Jul-26 14:08 UTC.
Position N 37°17' W 026°29'.

Length 172 m; draft 11 m.

Type: Cargo ship. MMSI: 538003275.

Date/timePositionNaut miles runAvg speedWind from/ knotsBaromVisibWave heightAir tempDewpointWater temp
2016-Jul-26 13:34N 37°17' W 026°29'1312.7
2016-Jul-26 12:33N 37°15' W 026°13'1312.6
2016-Jul-26 11:33N 37°14' W 025°57'1312.7
2016-Jul-26 10:33N 37°12' W 025°42'1312.5
2016-Jul-26 09:33N 37°11' W 025°26'1212.4
2016-Jul-26 08:33N 37°10' W 025°10'1212.3
2016-Jul-26 07:33N 37°09' W 024°55'1312.9
2016-Jul-26 06:33N 37°08' W 024°39'1312.9
2016-Jul-26 05:33N 37°06' W 024°23'1313.1
2016-Jul-26 04:33N 37°06' W 024°07'1313.1
2016-Jul-26 03:33N 37°04' W 023°50'1513.1
2016-Jul-26 02:26N 37°03' W 023°32'7613.0
2016-Jul-25 20:33N 36°55' W 021°57'23612.4
2016-Jul-25 01:33N 36°31' W 017°03'5012.3
2016-Jul-24 21:31N 36°27' W 016°02'27811.6
2016-Jul-23 21:33N 35°58' W 010°18'1111.3
2016-Jul-23 20:33N 35°57' W 010°04'1111.6
2016-Jul-23 19:33N 35°57' W 009°50'1311.4
2016-Jul-23 18:26N 35°58' W 009°35'30 9.5
2016-Jul-23 15:14N 35°58' W 008°57'710.3
2016-Jul-23 14:33N 35°57' W 008°48'1510.8
2016-Jul-23 13:08N 35°58' W 008°29'610.9
2016-Jul-23 12:33N 35°58' W 008°22'1611.8
2016-Jul-23 11:10N 35°58' W 008°02'12012.5
2016-Jul-23 01:33N 35°58' W 005°33'9 9.5
2016-Jul-23 00:33N 36°03' W 005°23'4 4.2
2016-Jul-22 23:34N 36°07' W 005°22'0 0.1
2016-Jul-22 22:33N 36°07' W 005°22'0 0.3
2016-Jul-22 21:33N 36°07' W 005°22'0 0.0
2016-Jul-22 20:18N 36°07' W 005°22'0 0.0
2016-Jul-22 19:33N 36°07' W 005°22'0 0.0
2016-Jul-22 18:33N 36°07' W 005°22'0 0.0
2016-Jul-22 17:27N 36°07' W 005°22'0 0.1
2016-Jul-22 16:30N 36°07' W 005°21'0 0.1
2016-Jul-22 15:33N 36°07' W 005°21'0 0.2
2016-Jul-22 14:30N 36°07' W 005°22'2 2.2
2016-Jul-22 13:33N 36°05' W 005°21'5 4.5
2016-Jul-22 12:33N 36°05' W 005°16'20 8.8
2016-Jul-22 10:14N 36°08' W 004°51'17511.9
2016-Jul-21 19:31N 36°33' W 001°16'2412.3
2016-Jul-21 17:32N 36°36' W 000°45'1212.7
2016-Jul-21 16:34N 36°38' W 000°30'1312.4
2016-Jul-21 15:31N 36°40' W 000°14'1212.3
2016-Jul-21 14:33N 36°41' E 000°00'1312.6
2016-Jul-21 13:33N 36°44' E 000°16'1312.7
2016-Jul-21 12:33N 36°46' E 000°31'1313.0
2016-Jul-21 11:33N 36°47' E 000°48'1312.8
2016-Jul-21 10:33N 36°48' E 001°04'1312.5
2016-Jul-21 09:33N 36°50' E 001°19'1312.7
2016-Jul-21 08:33N 36°52' E 001°35'1212.6
2016-Jul-21 07:33N 36°54' E 001°50'1312.7
2016-Jul-21 06:33N 36°56' E 002°06'1312.7
2016-Jul-21 05:33N 36°58' E 002°22'1312.8
2016-Jul-21 04:33N 36°60' E 002°37'1312.8
2016-Jul-21 03:33N 37°02' E 002°53'1312.5
2016-Jul-21 02:33N 37°04' E 003°09'1313.1
2016-Jul-21 01:32N 37°07' E 003°25'1412.9
2016-Jul-21 00:26N 37°10' E 003°43'2513.3
2016-Jul-20 22:33N 37°13' E 004°14'2612.9
2016-Jul-20 20:32N 37°14' E 004°46'2512.7
2016-Jul-20 18:34N 37°18' E 005°17'1312.8
2016-Jul-20 17:33N 37°21' E 005°34'1313.0
2016-Jul-20 16:33N 37°23' E 005°50'1312.9
2016-Jul-20 15:33N 37°24' E 006°06'1313.2
2016-Jul-20 14:33N 37°26' E 006°22'20312.7
2016-Jul-19 22:33N 37°35' E 010°38'1312.6
2016-Jul-19 21:30N 37°33' E 010°54'1212.9
2016-Jul-19 20:32N 37°30' E 011°09'4213.3
2016-Jul-19 17:22N 37°08' E 011°55'1113.4
2016-Jul-19 16:32N 37°03' E 012°07'1313.0
2016-Jul-19 15:33N 36°59' E 012°22'1212.1
2016-Jul-19 14:33N 36°55' E 012°37'1212.0
2016-Jul-19 13:34N 36°52' E 012°51'1212.1
2016-Jul-19 12:34N 36°49' E 013°06'1211.9
2016-Jul-19 11:33N 36°45' E 013°20'1212.1
2016-Jul-19 10:33N 36°41' E 013°34'1212.1
2016-Jul-19 09:33N 36°37' E 013°48'1211.9
2016-Jul-19 08:33N 36°33' E 014°02'1212.1
2016-Jul-19 07:33N 36°30' E 014°17'44411.1
2016-Jul-17 15:33N 36°44' E 023°29'1211.7
2016-Jul-17 14:33N 36°54' E 023°37'1212.2
2016-Jul-17 13:33N 37°05' E 023°44'1212.2
2016-Jul-17 12:33N 37°15' E 023°52'1312.5
2016-Jul-17 11:33N 37°26' E 024°01'1312.2
2016-Jul-17 10:30N 37°37' E 024°08'1211.2
2016-Jul-17 09:27N 37°49' E 024°10'1112.5
2016-Jul-17 08:33N 37°60' E 024°08'  

Dump ship's entire track history